createdAt,value
2019-04-21T00:01:30.662Z,16.60
2019-04-21T00:06:56.893Z,19.90
2019-04-21T00:12:12.001Z,16.20
2019-04-21T00:17:00.636Z,18.67
2019-04-21T00:22:14.189Z,20.87
2019-04-21T00:27:28.353Z,13.27
2019-04-21T00:32:33.391Z,13.93
2019-04-21T00:37:49.270Z,15.57
2019-04-21T00:42:58.851Z,15.00
2019-04-21T00:48:03.882Z,16.20
2019-04-21T00:53:37.895Z,15.90
2019-04-21T00:58:53.230Z,14.00
2019-04-21T01:03:46.229Z,16.37
2019-04-21T01:08:46.333Z,14.00
2019-04-21T01:14:05.225Z,16.70
2019-04-21T01:19:05.038Z,14.33
2019-04-21T01:23:55.675Z,15.03
2019-04-21T01:29:22.812Z,17.17
2019-04-21T01:34:33.102Z,12.93
2019-04-21T01:39:41.149Z,13.33
2019-04-21T01:44:48.504Z,14.47
2019-04-21T01:49:43.198Z,18.13
2019-04-21T01:55:32.340Z,15.73
2019-04-21T02:00:39.389Z,15.30
2019-04-21T02:05:59.654Z,11.07
2019-04-21T02:11:07.618Z,12.00
2019-04-21T02:16:12.472Z,13.63
2019-04-21T02:21:04.273Z,12.43
2019-04-21T02:26:27.189Z,17.07
2019-04-21T02:31:50.425Z,12.33
2019-04-21T02:37:05.513Z,14.57
2019-04-21T02:41:55.779Z,32.37
2019-04-21T02:46:54.517Z,12.60
2019-04-21T02:52:20.148Z,15.33
2019-04-21T02:57:18.446Z,15.27
2019-04-21T03:03:05.721Z,16.73
2019-04-21T03:08:03.795Z,14.30
2019-04-21T03:13:26.700Z,16.13
2019-04-21T03:18:24.250Z,15.57
2019-04-21T03:23:38.173Z,14.07
2019-04-21T03:28:39.683Z,15.93
2019-04-21T03:38:45.387Z,16.47
2019-04-21T03:43:58.845Z,15.70
2019-04-21T03:49:16.413Z,14.53
2019-04-21T03:54:22.345Z,12.10
2019-04-21T03:59:17.791Z,14.37
2019-04-21T04:04:52.736Z,16.33
2019-04-21T04:10:08.076Z,13.87
2019-04-21T04:15:15.071Z,13.27
2019-04-21T04:20:22.443Z,13.03
2019-04-21T04:25:25.225Z,16.33
2019-04-21T04:30:31.309Z,15.30
2019-04-21T04:35:52.903Z,11.57
2019-04-21T04:40:55.977Z,13.57
2019-04-21T04:45:59.980Z,12.87
2019-04-21T05:01:45.015Z,13.63
2019-04-21T05:06:42.709Z,12.43
2019-04-21T05:21:43.936Z,12.27
2019-04-21T05:26:51.960Z,11.00
2019-04-21T05:32:17.206Z,11.00
2019-04-21T05:37:43.224Z,13.03
2019-04-21T05:42:51.282Z,12.73
2019-04-21T05:48:39.807Z,11.17
2019-04-21T05:53:35.954Z,10.03
2019-04-21T05:58:46.270Z,10.50
2019-04-21T06:03:54.839Z,10.67
2019-04-21T06:08:52.588Z,9.90
2019-04-21T06:14:25.387Z,11.77
2019-04-21T06:19:15.058Z,10.07
2019-04-21T06:24:16.764Z,8.37
2019-04-21T06:29:26.531Z,11.13
2019-04-21T06:34:41.423Z,8.83
2019-04-21T06:39:52.593Z,11.07
2019-04-21T06:44:56.095Z,8.97
2019-04-21T06:49:56.804Z,9.83
2019-04-21T06:55:12.582Z,6.53
2019-04-21T07:00:07.463Z,9.93
2019-04-21T07:05:13.579Z,9.87
2019-04-21T07:15:30.393Z,5.53
2019-04-21T07:20:37.947Z,5.97
2019-04-21T07:25:48.322Z,7.07
2019-04-21T07:30:59.378Z,6.73
2019-04-21T07:36:06.326Z,13.53
2019-04-21T07:41:02.567Z,5.20
2019-04-21T07:46:10.134Z,7.73
2019-04-21T07:51:43.986Z,7.03
2019-04-21T07:56:32.986Z,6.03
2019-04-21T08:01:55.062Z,5.37
2019-04-21T08:07:02.786Z,4.40
2019-04-21T08:12:04.331Z,7.60
2019-04-21T08:17:16.217Z,7.83
2019-04-21T08:22:30.730Z,5.07
2019-04-21T08:27:35.171Z,5.83
2019-04-21T08:33:00.572Z,5.03
2019-04-21T08:37:55.202Z,5.90
2019-04-21T08:43:04.104Z,6.93
2019-04-21T08:48:18.280Z,4.13
2019-04-21T08:53:20.843Z,5.37
2019-04-21T08:58:54.152Z,5.93
2019-04-21T09:03:56.777Z,7.00
2019-04-21T09:09:08.182Z,5.67
2019-04-21T09:14:10.384Z,4.53
2019-04-21T09:19:20.226Z,5.57
2019-04-21T09:24:22.232Z,5.53
2019-04-21T09:29:22.125Z,4.30
2019-04-21T09:34:24.875Z,4.73
2019-04-21T09:39:29.678Z,6.87
2019-04-21T09:44:38.673Z,5.93
2019-04-21T09:49:43.201Z,9.77
2019-04-21T09:54:58.670Z,5.37
2019-04-21T10:00:05.033Z,5.63
2019-04-21T10:05:05.348Z,6.80
2019-04-21T10:10:12.803Z,6.77
2019-04-21T10:15:19.628Z,6.87
2019-04-21T10:20:26.764Z,7.30
2019-04-21T10:25:32.554Z,4.57
2019-04-21T10:30:38.541Z,5.53
2019-04-21T10:35:45.025Z,7.77
2019-04-21T10:40:51.588Z,5.33
2019-04-21T10:45:57.347Z,5.63
2019-04-21T10:51:03.220Z,9.17
2019-04-21T10:56:18.069Z,7.63
2019-04-21T11:01:21.150Z,5.43
2019-04-21T11:06:26.627Z,5.57
2019-04-21T11:11:32.254Z,4.10
2019-04-21T11:16:37.748Z,7.30
2019-04-21T11:21:43.143Z,4.10
2019-04-21T11:26:49.726Z,4.10
2019-04-21T11:31:56.889Z,3.93
2019-04-21T11:37:03.928Z,3.83
2019-04-21T11:42:17.697Z,6.07
2019-04-21T11:47:28.112Z,3.30
2019-04-21T11:52:34.732Z,4.77
2019-04-21T11:57:44.923Z,5.93
2019-04-21T12:02:48.396Z,6.47
2019-04-21T12:07:53.719Z,3.67
2019-04-21T12:12:59.263Z,4.30
2019-04-21T12:18:06.024Z,5.90
2019-04-21T12:23:12.199Z,3.63
2019-04-21T12:28:19.589Z,4.60
2019-04-21T12:33:38.046Z,4.33
2019-04-21T12:38:52.176Z,3.63
2019-04-21T12:43:52.755Z,4.70
2019-04-21T12:48:59.888Z,5.43
2019-04-21T12:54:06.007Z,3.93
2019-04-21T12:59:13.434Z,3.60
2019-04-21T13:04:20.278Z,3.77
2019-04-21T13:09:32.120Z,9.40
2019-04-21T13:14:39.928Z,4.10
2019-04-21T13:19:45.774Z,4.30
2019-04-21T13:24:51.803Z,3.97
2019-04-21T13:29:57.768Z,4.93
2019-04-21T13:35:05.253Z,5.47
2019-04-21T13:40:50.095Z,4.30
2019-04-21T13:45:42.058Z,3.67
2019-04-21T13:50:49.068Z,4.03
2019-04-21T13:55:56.319Z,3.77
2019-04-21T14:01:03.401Z,5.17
2019-04-21T14:06:09.371Z,3.10
2019-04-21T14:11:25.124Z,4.13
2019-04-21T14:16:32.005Z,2.67
2019-04-21T14:21:41.191Z,3.53
2019-04-21T14:26:47.876Z,8.37
2019-04-21T14:31:53.538Z,2.83
2019-04-21T14:36:59.612Z,4.33
2019-04-21T14:42:06.365Z,3.80
2019-04-21T14:47:37.977Z,4.20
2019-04-21T14:52:44.911Z,4.63
2019-04-21T14:57:51.518Z,3.43
2019-04-21T15:02:57.912Z,5.53
2019-04-21T15:08:03.466Z,3.50
2019-04-21T15:13:10.057Z,5.60
2019-04-21T15:18:16.777Z,4.23
2019-04-21T15:23:26.371Z,4.33
2019-04-21T15:28:33.919Z,5.47
2019-04-21T15:33:39.205Z,4.20
2019-04-21T15:38:45.811Z,4.33
2019-04-21T15:43:51.255Z,5.30
2019-04-21T15:48:57.133Z,5.63
2019-04-21T15:54:04.797Z,3.80
2019-04-21T15:59:38.519Z,8.07
2019-04-21T16:04:46.535Z,4.63
2019-04-21T16:09:52.440Z,4.37
2019-04-21T16:14:58.788Z,3.80
2019-04-21T16:20:12.223Z,3.87
2019-04-21T16:25:21.038Z,5.27
2019-04-21T16:30:29.030Z,5.83
2019-04-21T16:35:36.147Z,7.00
2019-04-21T16:40:52.594Z,5.57
2019-04-21T16:45:52.875Z,6.07
2019-04-21T16:50:59.517Z,3.87
2019-04-21T16:56:29.030Z,4.53
2019-04-21T17:01:34.550Z,6.50
2019-04-21T17:06:42.858Z,5.87
2019-04-21T17:11:57.451Z,5.97
2019-04-21T17:17:19.089Z,7.47
2019-04-21T17:22:05.869Z,7.03
2019-04-21T17:27:11.462Z,4.63
2019-04-21T17:32:18.377Z,3.57
2019-04-21T17:37:26.784Z,4.87
2019-04-21T17:42:39.763Z,7.70
2019-04-21T17:47:49.800Z,6.73
2019-04-21T17:52:59.028Z,6.63
2019-04-21T17:58:16.010Z,8.37
2019-04-21T18:03:39.010Z,7.43
2019-04-21T18:08:36.397Z,6.77
2019-04-21T18:13:26.872Z,7.10
2019-04-21T18:18:34.900Z,9.20
2019-04-21T18:24:05.709Z,10.60
2019-04-21T18:29:05.420Z,8.23
2019-04-21T18:34:32.327Z,14.77
2019-04-21T18:39:55.905Z,9.17
2019-04-21T18:50:30.323Z,17.20
2019-04-21T18:55:41.481Z,16.47
2019-04-21T19:00:44.153Z,12.03
2019-04-21T19:05:59.440Z,13.23
2019-04-21T19:11:19.641Z,11.33
2019-04-21T19:16:33.095Z,13.63
2019-04-21T19:21:31.159Z,13.17
2019-04-21T19:26:54.658Z,15.13
2019-04-21T19:31:54.740Z,21.53
2019-04-21T19:36:49.377Z,23.37
2019-04-21T19:42:00.519Z,17.23
2019-04-21T19:47:19.816Z,18.87
2019-04-21T19:52:20.383Z,21.13
2019-04-21T19:57:18.795Z,18.33
2019-04-21T20:02:24.786Z,23.40
2019-04-21T20:07:44.448Z,16.53
2019-04-21T20:12:58.385Z,17.07
2019-04-21T20:18:02.043Z,14.90
2019-04-21T20:22:56.055Z,19.70
2019-04-21T20:28:09.610Z,19.07
2019-04-21T20:38:31.305Z,17.37
2019-04-21T20:43:47.173Z,16.30
2019-04-21T20:48:52.845Z,15.77
2019-04-21T20:53:56.583Z,17.83
2019-04-21T20:59:07.738Z,16.83
2019-04-21T21:04:12.104Z,14.93
2019-04-21T21:09:17.964Z,17.33
2019-04-21T21:14:29.288Z,16.10
2019-04-21T21:19:42.447Z,14.57
2019-04-21T21:24:46.408Z,17.93
2019-04-21T21:29:50.230Z,14.30
2019-04-21T21:35:06.166Z,14.67
2019-04-21T21:40:09.470Z,15.77
2019-04-21T21:45:04.858Z,17.03
2019-04-21T21:50:17.183Z,16.83
2019-04-21T21:55:15.838Z,15.43
2019-04-21T22:00:26.331Z,19.53
2019-04-21T22:05:45.571Z,16.90
2019-04-21T22:10:41.227Z,24.60
2019-04-21T22:15:58.070Z,15.40
2019-04-21T22:21:10.274Z,13.13
2019-04-21T22:26:07.324Z,12.40
2019-04-21T22:31:22.428Z,15.47
2019-04-21T22:36:36.615Z,14.53
2019-04-21T22:41:40.518Z,16.50
2019-04-21T22:46:52.087Z,14.00
2019-04-21T22:51:51.848Z,14.73
2019-04-21T22:57:05.239Z,13.33
2019-04-21T23:02:13.629Z,15.67
2019-04-21T23:07:17.277Z,11.53
2019-04-21T23:12:28.158Z,15.23
2019-04-21T23:17:53.157Z,16.40
2019-04-21T23:23:05.162Z,16.97
2019-04-21T23:28:09.248Z,14.33
2019-04-21T23:33:06.562Z,14.23
2019-04-21T23:38:10.653Z,17.93
2019-04-21T23:43:23.877Z,15.13
2019-04-21T23:48:39.101Z,22.77
2019-04-21T23:53:39.507Z,18.93
2019-04-21T23:58:52.049Z,14.77
